Azure — ZCEE2 — position and weather

sailwx.info

Track history (hours):
 
Tides and Currents Weather Stations Pressure Air Temp Water Temp Dewpoint Dewpoint Depression Visibility Wind Speed Wind Dir Waves Ship Positions

Azure

Last reported at 2014-Oct-31 09:31 UTC. Time now 2014-Oct-31 09:46 UTC.
Position N 50°54' W 001°24'.

Length 289 m; draft 8.6 m.

Type: Ship. MMSI: 310610000.

Date/timePositionNaut miles runAvg speedWind from/ knotsBaromVisibWave heightAir tempDewpointWater temp
2014-Oct-31 09:31N 50°54' W 001°24'0 0.0
2014-Oct-31 08:31N 50°54' W 001°24'0 0.0
2014-Oct-31 07:33N 50°54' W 001°24'0 0.0
2014-Oct-31 06:33N 50°54' W 001°24'5 4.5
2014-Oct-31 05:33N 50°50' W 001°19'1313.2
2014-Oct-31 04:34N 50°43' W 001°01'9 9.3
2014-Oct-31 03:34N 50°35' W 000°55'9 8.8
2014-Oct-31 02:33N 50°30' W 000°43'6 5.9
2014-Oct-31 01:34N 50°24' W 000°43'8 7.8
2014-Oct-31 00:33N 50°16' W 000°41'209 6.9
2014-Oct-29 18:13N 48°18' W 005°05'1217.6
2014-Oct-29 17:33N 48°17' W 004°47'1414.1
2014-Oct-29 16:34N 48°23' W 004°28'0 0.4
2014-Oct-29 15:30N 48°23' W 004°27'0 0.0
2014-Oct-29 14:33N 48°23' W 004°27'0 0.0
2014-Oct-29 13:32N 48°23' W 004°27'0 0.0
2014-Oct-29 12:32N 48°23' W 004°27'0 0.0
2014-Oct-29 11:32N 48°23' W 004°27'0 0.0
2014-Oct-29 10:31N 48°23' W 004°27'0 0.0
2014-Oct-29 09:31N 48°23' W 004°27'0 0.0
2014-Oct-29 08:33N 48°23' W 004°27'0 0.0
2014-Oct-29 07:33N 48°23' W 004°27'0 0.1
2014-Oct-29 06:33N 48°23' W 004°27'9 8.8
2014-Oct-29 05:33N 48°19' W 004°39'1615.6
2014-Oct-29 04:34N 48°14' W 005°01'1413.4
2014-Oct-29 03:33N 48°01' W 005°10'1717.3
2014-Oct-29 02:33N 47°50' W 004°50'1817.2
2014-Oct-29 01:29N 47°39' W 004°29'1617.0
2014-Oct-29 00:32N 47°29' W 004°10'1717.7
2014-Oct-28 23:33N 47°18' W 003°50'1817.9
2014-Oct-28 22:33N 47°07' W 003°29'1818.0
2014-Oct-28 21:33N 46°56' W 003°08'2117.9
2014-Oct-28 20:24N 46°43' W 002°44'1518.0
2014-Oct-28 19:33N 46°35' W 002°26'1717.5
2014-Oct-28 18:33N 46°23' W 002°06'1730.4
2014-Oct-28 18:00N 46°12' W 001°48'1 2.7 220 / 41014.010.8 17.013.5
2014-Oct-28 17:33N 46°13' W 001°47'9 0.8
2014-Oct-28 05:24N 46°05' W 001°39'1112.7
2014-Oct-28 04:33N 45°56' W 001°47'1413.5
2014-Oct-28 03:33N 45°43' W 001°54'1413.8
2014-Oct-28 02:33N 45°30' W 002°01'10614.7
2014-Oct-27 19:21N 43°51' W 002°52'1214.5
2014-Oct-27 18:33N 43°40' W 002°57'1414.2
2014-Oct-27 17:33N 43°27' W 003°04'6 6.3
2014-Oct-27 16:32N 43°20' W 003°01'0 0.0
2014-Oct-27 15:32N 43°20' W 003°01'0 0.0
2014-Oct-27 14:31N 43°20' W 003°01'0 0.0
2014-Oct-27 13:31N 43°20' W 003°01'0 0.0
2014-Oct-27 12:33N 43°20' W 003°01'0 0.0
2014-Oct-27 11:33N 43°20' W 003°01'0 0.0
2014-Oct-27 10:33N 43°20' W 003°01'0 0.0
2014-Oct-27 09:32N 43°20' W 003°01'0 0.0
2014-Oct-27 08:32N 43°20' W 003°01'0 0.0
2014-Oct-27 07:31N 43°20' W 003°01'0 0.0
2014-Oct-27 06:31N 43°20' W 003°01'4 3.7
2014-Oct-27 05:33N 43°23' W 003°05'1414.4
2014-Oct-27 04:34N 43°36' W 003°12'1616.2
2014-Oct-27 03:33N 43°52' W 003°19'1615.9
2014-Oct-27 02:33N 44°07' W 003°27'1616.0
2014-Oct-27 01:34N 44°22' W 003°34'1616.1
2014-Oct-27 00:33N 44°37' W 003°41'4317.1
2014-Oct-26 22:03N 45°17' W 004°01'817.0
2014-Oct-26 21:33N 45°25' W 004°05'1717.0
2014-Oct-26 20:33N 45°41' W 004°13'13516.3
2014-Oct-26 12:17N 47°49' W 005°17'1615.3
2014-Oct-26 11:14N 48°04' W 005°25'5713.5
2014-Oct-26 07:00N 48°54' W 004°42'6914.5 220 / 111021.010.8 14.5 8.620.0
2014-Oct-26 02:11N 49°41' W 003°24'1216.6
2014-Oct-26 01:26N 49°49' W 003°10'1616.3
2014-Oct-26 00:26N 49°58' W 002°49'6613.0
2014-Oct-25 19:21N 50°28' W 001°16'1012.5
2014-Oct-25 18:33N 50°32' W 001°02'1111.2
2014-Oct-25 17:33N 50°44' W 001°03'1312.7
2014-Oct-25 16:33N 50°51' W 001°20'4 4.0
2014-Oct-25 15:32N 50°54' W 001°24'0 0.0
2014-Oct-25 14:32N 50°54' W 001°24'0 0.0
2014-Oct-25 13:32N 50°54' W 001°24'0 0.0
2014-Oct-25 12:31N 50°54' W 001°24'0 0.0
2014-Oct-25 11:31N 50°54' W 001°24'0 0.0
2014-Oct-25 10:33N 50°54' W 001°24'0 0.0
2014-Oct-25 09:33N 50°54' W 001°24'0 0.0
2014-Oct-25 08:32N 50°54' W 001°24'0 0.0
2014-Oct-25 07:32N 50°54' W 001°24'0 0.0
2014-Oct-25 06:32N 50°54' W 001°24'0 0.0
2014-Oct-25 05:31N 50°54' W 001°24'3 3.0
2014-Oct-25 04:33N 50°51' W 001°21'10 9.8
2014-Oct-25 03:33N 50°46' W 001°08'1111.1
2014-Oct-25 02:34N 50°36' W 000°59'8 7.7
2014-Oct-25 01:34N 50°31' W 001°08'8 8.1
2014-Oct-25 00:33N 50°27' W 001°19'1110.9
2014-Oct-24 23:32N 50°21' W 001°34'10716.3
2014-Oct-24 17:00N 49°18' W 003°48'27915.1 310 / 211014.710.8 15.513.715.0
2014-Oct-23 22:33N 45°20' W 007°23'6215.2
2014-Oct-23 18:27N 44°22' W 007°57'202 7.9
2014-Oct-22 17:00N 41°18' W 009°48'12416.6 360 / 141024.910.8 20.017.6
2014-Oct-22 09:33N 39°14' W 009°52'1616.1
2014-Oct-22 08:33N 38°58' W 009°52'1616.2
2014-Oct-22 07:32N 38°42' W 009°49'1616.4
2014-Oct-22 06:33N 38°26' W 009°45'1716.8
2014-Oct-22 05:33N 38°09' W 009°40'1716.7
2014-Oct-22 04:33N 37°53' W 009°36'1221.6
2014-Oct-22 04:00N 37°42' W 009°30'612.5 060 / 201024.3 5.4 22.018.021.0
2014-Oct-22 03:33N 37°37' W 009°32'1717.0
2014-Oct-22 02:33N 37°20' W 009°27'1717.0
2014-Oct-22 01:33N 37°04' W 009°22'1616.5
2014-Oct-22 00:33N 36°49' W 009°14'1716.6
2014-Oct-21 23:33N 36°43' W 008°55'1716.9
2014-Oct-21 22:33N 36°41' W 008°34'1717.0
2014-Oct-21 21:33N 36°40' W 008°12'1716.9
2014-Oct-21 20:32N 36°39' W 007°51'  
Track history (hours):
 
Tides and Currents Weather Stations Pressure Air Temp Water Temp Dewpoint Dewpoint Depression Visibility Wind Speed Wind Dir Waves Ship Positions

Azure

Last reported at 2014-Oct-31 09:31 UTC. Time now 2014-Oct-31 09:46 UTC.
Position N 50°54' W 001°24'.

Length 289 m; draft 8.6 m.

Type: Ship. MMSI: 310610000.

Date/timePositionNaut miles runAvg speedWind from/ knotsBaromVisibWave heightAir tempDewpointWater temp
2014-Oct-31 09:31N 50°54' W 001°24'0 0.0
2014-Oct-31 08:31N 50°54' W 001°24'0 0.0
2014-Oct-31 07:33N 50°54' W 001°24'0 0.0
2014-Oct-31 06:33N 50°54' W 001°24'5 4.5
2014-Oct-31 05:33N 50°50' W 001°19'1313.2
2014-Oct-31 04:34N 50°43' W 001°01'9 9.3
2014-Oct-31 03:34N 50°35' W 000°55'9 8.8
2014-Oct-31 02:33N 50°30' W 000°43'6 5.9
2014-Oct-31 01:34N 50°24' W 000°43'8 7.8
2014-Oct-31 00:33N 50°16' W 000°41'209 6.9
2014-Oct-29 18:13N 48°18' W 005°05'1217.6
2014-Oct-29 17:33N 48°17' W 004°47'1414.1
2014-Oct-29 16:34N 48°23' W 004°28'0 0.4
2014-Oct-29 15:30N 48°23' W 004°27'0 0.0
2014-Oct-29 14:33N 48°23' W 004°27'0 0.0
2014-Oct-29 13:32N 48°23' W 004°27'0 0.0
2014-Oct-29 12:32N 48°23' W 004°27'0 0.0
2014-Oct-29 11:32N 48°23' W 004°27'0 0.0
2014-Oct-29 10:31N 48°23' W 004°27'0 0.0
2014-Oct-29 09:31N 48°23' W 004°27'0 0.0
2014-Oct-29 08:33N 48°23' W 004°27'0 0.0
2014-Oct-29 07:33N 48°23' W 004°27'0 0.1
2014-Oct-29 06:33N 48°23' W 004°27'9 8.8
2014-Oct-29 05:33N 48°19' W 004°39'1615.6
2014-Oct-29 04:34N 48°14' W 005°01'1413.4
2014-Oct-29 03:33N 48°01' W 005°10'1717.3
2014-Oct-29 02:33N 47°50' W 004°50'1817.2
2014-Oct-29 01:29N 47°39' W 004°29'1617.0
2014-Oct-29 00:32N 47°29' W 004°10'1717.7
2014-Oct-28 23:33N 47°18' W 003°50'1817.9
2014-Oct-28 22:33N 47°07' W 003°29'1818.0
2014-Oct-28 21:33N 46°56' W 003°08'2117.9
2014-Oct-28 20:24N 46°43' W 002°44'1518.0
2014-Oct-28 19:33N 46°35' W 002°26'1717.5
2014-Oct-28 18:33N 46°23' W 002°06'1730.4
2014-Oct-28 18:00N 46°12' W 001°48'1 2.7 220 / 41014.010.8 17.013.5
2014-Oct-28 17:33N 46°13' W 001°47'9 0.8
2014-Oct-28 05:24N 46°05' W 001°39'1112.7
2014-Oct-28 04:33N 45°56' W 001°47'1413.5
2014-Oct-28 03:33N 45°43' W 001°54'1413.8
2014-Oct-28 02:33N 45°30' W 002°01'10614.7
2014-Oct-27 19:21N 43°51' W 002°52'1214.5
2014-Oct-27 18:33N 43°40' W 002°57'1414.2
2014-Oct-27 17:33N 43°27' W 003°04'6 6.3
2014-Oct-27 16:32N 43°20' W 003°01'0 0.0
2014-Oct-27 15:32N 43°20' W 003°01'0 0.0
2014-Oct-27 14:31N 43°20' W 003°01'0 0.0
2014-Oct-27 13:31N 43°20' W 003°01'0 0.0
2014-Oct-27 12:33N 43°20' W 003°01'0 0.0
2014-Oct-27 11:33N 43°20' W 003°01'0 0.0
2014-Oct-27 10:33N 43°20' W 003°01'0 0.0
2014-Oct-27 09:32N 43°20' W 003°01'0 0.0
2014-Oct-27 08:32N 43°20' W 003°01'0 0.0
2014-Oct-27 07:31N 43°20' W 003°01'0 0.0
2014-Oct-27 06:31N 43°20' W 003°01'4 3.7
2014-Oct-27 05:33N 43°23' W 003°05'1414.4
2014-Oct-27 04:34N 43°36' W 003°12'1616.2
2014-Oct-27 03:33N 43°52' W 003°19'1615.9
2014-Oct-27 02:33N 44°07' W 003°27'1616.0
2014-Oct-27 01:34N 44°22' W 003°34'1616.1
2014-Oct-27 00:33N 44°37' W 003°41'4317.1
2014-Oct-26 22:03N 45°17' W 004°01'817.0
2014-Oct-26 21:33N 45°25' W 004°05'1717.0
2014-Oct-26 20:33N 45°41' W 004°13'13516.3
2014-Oct-26 12:17N 47°49' W 005°17'1615.3
2014-Oct-26 11:14N 48°04' W 005°25'5713.5
2014-Oct-26 07:00N 48°54' W 004°42'6914.5 220 / 111021.010.8 14.5 8.620.0
2014-Oct-26 02:11N 49°41' W 003°24'1216.6
2014-Oct-26 01:26N 49°49' W 003°10'1616.3
2014-Oct-26 00:26N 49°58' W 002°49'6613.0
2014-Oct-25 19:21N 50°28' W 001°16'1012.5
2014-Oct-25 18:33N 50°32' W 001°02'1111.2
2014-Oct-25 17:33N 50°44' W 001°03'1312.7
2014-Oct-25 16:33N 50°51' W 001°20'4 4.0
2014-Oct-25 15:32N 50°54' W 001°24'0 0.0
2014-Oct-25 14:32N 50°54' W 001°24'0 0.0
2014-Oct-25 13:32N 50°54' W 001°24'0 0.0
2014-Oct-25 12:31N 50°54' W 001°24'0 0.0
2014-Oct-25 11:31N 50°54' W 001°24'0 0.0
2014-Oct-25 10:33N 50°54' W 001°24'0 0.0
2014-Oct-25 09:33N 50°54' W 001°24'0 0.0
2014-Oct-25 08:32N 50°54' W 001°24'0 0.0
2014-Oct-25 07:32N 50°54' W 001°24'0 0.0
2014-Oct-25 06:32N 50°54' W 001°24'0 0.0
2014-Oct-25 05:31N 50°54' W 001°24'3 3.0
2014-Oct-25 04:33N 50°51' W 001°21'10 9.8
2014-Oct-25 03:33N 50°46' W 001°08'1111.1
2014-Oct-25 02:34N 50°36' W 000°59'8 7.7
2014-Oct-25 01:34N 50°31' W 001°08'8 8.1
2014-Oct-25 00:33N 50°27' W 001°19'1110.9
2014-Oct-24 23:32N 50°21' W 001°34'10716.3
2014-Oct-24 17:00N 49°18' W 003°48'27915.1 310 / 211014.710.8 15.513.715.0
2014-Oct-23 22:33N 45°20' W 007°23'6215.2
2014-Oct-23 18:27N 44°22' W 007°57'202 7.9
2014-Oct-22 17:00N 41°18' W 009°48'12416.6 360 / 141024.910.8 20.017.6
2014-Oct-22 09:33N 39°14' W 009°52'1616.1
2014-Oct-22 08:33N 38°58' W 009°52'1616.2
2014-Oct-22 07:32N 38°42' W 009°49'1616.4
2014-Oct-22 06:33N 38°26' W 009°45'1716.8
2014-Oct-22 05:33N 38°09' W 009°40'1716.7
2014-Oct-22 04:33N 37°53' W 009°36'1221.6
2014-Oct-22 04:00N 37°42' W 009°30'612.5 060 / 201024.3 5.4 22.018.021.0
2014-Oct-22 03:33N 37°37' W 009°32'1717.0
2014-Oct-22 02:33N 37°20' W 009°27'1717.0
2014-Oct-22 01:33N 37°04' W 009°22'1616.5
2014-Oct-22 00:33N 36°49' W 009°14'1716.6
2014-Oct-21 23:33N 36°43' W 008°55'1716.9
2014-Oct-21 22:33N 36°41' W 008°34'1717.0
2014-Oct-21 21:33N 36°40' W 008°12'1716.9
2014-Oct-21 20:32N 36°39' W 007°51'  

Dump ship's entire track history